sensor_id;sensor_type;location;lat;lon;timestamp;P1;durP1;ratioP1;P2;durP2;ratioP2
34481;SDS011;20720;48.886;9.388;2023-05-18T00:00:34;9.90;;;4.75;;
34481;SDS011;20720;48.886;9.388;2023-05-18T00:02:59;8.75;;;4.05;;
34481;SDS011;20720;48.886;9.388;2023-05-18T00:05:26;8.85;;;4.10;;
34481;SDS011;20720;48.886;9.388;2023-05-18T00:07:51;8.23;;;4.38;;
34481;SDS011;20720;48.886;9.388;2023-05-18T00:10:17;13.32;;;5.40;;
34481;SDS011;20720;48.886;9.388;2023-05-18T00:12:42;9.68;;;5.30;;
34481;SDS011;20720;48.886;9.388;2023-05-18T00:15:07;8.18;;;5.05;;
34481;SDS011;20720;48.886;9.388;2023-05-18T00:17:34;7.47;;;4.40;;
34481;SDS011;20720;48.886;9.388;2023-05-18T00:19:59;9.00;;;4.47;;
34481;SDS011;20720;48.886;9.388;2023-05-18T00:22:24;7.18;;;4.22;;
34481;SDS011;20720;48.886;9.388;2023-05-18T00:24:50;8.70;;;4.28;;
34481;SDS011;20720;48.886;9.388;2023-05-18T00:27:15;8.52;;;4.75;;
34481;SDS011;20720;48.886;9.388;2023-05-18T00:29:41;7.75;;;4.05;;
34481;SDS011;20720;48.886;9.388;2023-05-18T00:32:07;7.63;;;3.55;;
34481;SDS011;20720;48.886;9.388;2023-05-18T00:34:33;7.00;;;4.10;;
34481;SDS011;20720;48.886;9.388;2023-05-18T00:36:58;11.68;;;4.55;;
34481;SDS011;20720;48.886;9.388;2023-05-18T00:39:23;9.23;;;4.20;;
34481;SDS011;20720;48.886;9.388;2023-05-18T00:41:49;7.53;;;4.28;;
34481;SDS011;20720;48.886;9.388;2023-05-18T00:44:14;8.02;;;4.78;;
34481;SDS011;20720;48.886;9.388;2023-05-18T00:46:39;7.82;;;4.20;;
34481;SDS011;20720;48.886;9.388;2023-05-18T00:49:05;10.10;;;4.00;;
34481;SDS011;20720;48.886;9.388;2023-05-18T00:51:31;8.85;;;4.10;;
34481;SDS011;20720;48.886;9.388;2023-05-18T00:53:58;7.50;;;3.97;;
34481;SDS011;20720;48.886;9.388;2023-05-18T00:56:23;8.57;;;3.70;;
34481;SDS011;20720;48.886;9.388;2023-05-18T00:58:53;7.32;;;3.72;;
34481;SDS011;20720;48.886;9.388;2023-05-18T01:01:22;6.20;;;3.40;;
34481;SDS011;20720;48.886;9.388;2023-05-18T01:03:53;8.65;;;3.58;;
34481;SDS011;20720;48.886;9.388;2023-05-18T01:06:21;7.07;;;3.38;;
34481;SDS011;20720;48.886;9.388;2023-05-18T01:08:51;8.35;;;4.28;;
34481;SDS011;20720;48.886;9.388;2023-05-18T01:11:23;9.18;;;4.43;;
34481;SDS011;20720;48.886;9.388;2023-05-18T01:16:47;7.78;;;4.78;;
34481;SDS011;20720;48.886;9.388;2023-05-18T01:22:03;8.50;;;4.75;;
34481;SDS011;20720;48.886;9.388;2023-05-18T01:24:49;9.55;;;4.78;;
34481;SDS011;20720;48.886;9.388;2023-05-18T01:27:21;8.32;;;5.07;;
34481;SDS011;20720;48.886;9.388;2023-05-18T01:29:49;11.63;;;5.13;;
34481;SDS011;20720;48.886;9.388;2023-05-18T01:32:18;9.27;;;5.43;;
34481;SDS011;20720;48.886;9.388;2023-05-18T01:34:44;9.77;;;5.05;;
34481;SDS011;20720;48.886;9.388;2023-05-18T01:37:10;9.30;;;4.75;;
34481;SDS011;20720;48.886;9.388;2023-05-18T01:39:35;9.65;;;4.97;;
34481;SDS011;20720;48.886;9.388;2023-05-18T01:42:01;7.97;;;4.53;;
34481;SDS011;20720;48.886;9.388;2023-05-18T01:44:33;9.50;;;4.68;;
34481;SDS011;20720;48.886;9.388;2023-05-18T01:49:38;8.30;;;4.50;;
34481;SDS011;20720;48.886;9.388;2023-05-18T01:52:10;6.70;;;3.83;;
34481;SDS011;20720;48.886;9.388;2023-05-18T01:54:40;9.48;;;4.15;;
34481;SDS011;20720;48.886;9.388;2023-05-18T01:57:08;7.50;;;3.85;;
34481;SDS011;20720;48.886;9.388;2023-05-18T01:59:35;5.07;;;2.95;;
34481;SDS011;20720;48.886;9.388;2023-05-18T02:02:01;10.32;;;4.35;;
34481;SDS011;20720;48.886;9.388;2023-05-18T02:04:28;8.20;;;4.00;;
34481;SDS011;20720;48.886;9.388;2023-05-18T02:06:53;10.00;;;5.05;;
34481;SDS011;20720;48.886;9.388;2023-05-18T02:09:19;11.82;;;5.35;;
34481;SDS011;20720;48.886;9.388;2023-05-18T02:11:45;9.18;;;4.88;;
34481;SDS011;20720;48.886;9.388;2023-05-18T02:14:11;11.68;;;5.22;;
34481;SDS011;20720;48.886;9.388;2023-05-18T02:16:36;10.00;;;4.70;;
34481;SDS011;20720;48.886;9.388;2023-05-18T02:19:01;9.32;;;5.30;;
34481;SDS011;20720;48.886;9.388;2023-05-18T02:21:27;9.77;;;5.00;;
34481;SDS011;20720;48.886;9.388;2023-05-18T02:23:53;7.15;;;4.35;;
34481;SDS011;20720;48.886;9.388;2023-05-18T02:26:18;8.25;;;4.35;;
34481;SDS011;20720;48.886;9.388;2023-05-18T02:28:43;8.07;;;4.28;;
34481;SDS011;20720;48.886;9.388;2023-05-18T02:31:09;8.43;;;4.22;;
34481;SDS011;20720;48.886;9.388;2023-05-18T02:33:38;8.02;;;4.40;;
34481;SDS011;20720;48.886;9.388;2023-05-18T02:36:08;8.05;;;4.13;;
34481;SDS011;20720;48.886;9.388;2023-05-18T02:38:35;6.53;;;3.72;;
34481;SDS011;20720;48.886;9.388;2023-05-18T02:41:04;10.32;;;3.90;;
34481;SDS011;20720;48.886;9.388;2023-05-18T02:43:29;6.80;;;4.10;;
34481;SDS011;20720;48.886;9.388;2023-05-18T02:45:55;10.02;;;4.60;;
34481;SDS011;20720;48.886;9.388;2023-05-18T02:48:20;8.25;;;3.75;;
34481;SDS011;20720;48.886;9.388;2023-05-18T02:50:48;6.90;;;3.95;;
34481;SDS011;20720;48.886;9.388;2023-05-18T02:53:14;6.82;;;3.40;;
34481;SDS011;20720;48.886;9.388;2023-05-18T02:55:39;8.50;;;4.40;;
34481;SDS011;20720;48.886;9.388;2023-05-18T02:58:05;7.38;;;3.83;;
34481;SDS011;20720;48.886;9.388;2023-05-18T03:00:31;7.70;;;3.97;;
34481;SDS011;20720;48.886;9.388;2023-05-18T03:02:56;8.85;;;4.25;;
34481;SDS011;20720;48.886;9.388;2023-05-18T03:05:24;7.35;;;3.58;;
34481;SDS011;20720;48.886;9.388;2023-05-18T03:07:50;5.93;;;3.67;;
34481;SDS011;20720;48.886;9.388;2023-05-18T03:10:16;9.82;;;4.28;;
34481;SDS011;20720;48.886;9.388;2023-05-18T03:12:42;9.50;;;3.92;;
34481;SDS011;20720;48.886;9.388;2023-05-18T03:15:07;8.20;;;4.10;;
34481;SDS011;20720;48.886;9.388;2023-05-18T03:17:33;9.32;;;4.88;;
34481;SDS011;20720;48.886;9.388;2023-05-18T03:19:58;8.07;;;4.47;;
34481;SDS011;20720;48.886;9.388;2023-05-18T03:22:23;8.98;;;4.80;;
34481;SDS011;20720;48.886;9.388;2023-05-18T03:24:49;10.18;;;4.70;;
34481;SDS011;20720;48.886;9.388;2023-05-18T03:27:15;7.70;;;4.57;;
34481;SDS011;20720;48.886;9.388;2023-05-18T03:29:42;10.45;;;5.70;;
34481;SDS011;20720;48.886;9.388;2023-05-18T03:32:07;24.45;;;10.80;;
34481;SDS011;20720;48.886;9.388;2023-05-18T03:34:33;21.70;;;8.80;;
34481;SDS011;20720;48.886;9.388;2023-05-18T03:36:59;17.27;;;8.82;;
34481;SDS011;20720;48.886;9.388;2023-05-18T03:39:24;24.98;;;10.73;;
34481;SDS011;20720;48.886;9.388;2023-05-18T03:41:49;19.50;;;9.57;;
34481;SDS011;20720;48.886;9.388;2023-05-18T03:44:15;21.08;;;10.00;;
34481;SDS011;20720;48.886;9.388;2023-05-18T03:46:40;20.33;;;9.25;;
34481;SDS011;20720;48.886;9.388;2023-05-18T03:49:05;17.45;;;7.72;;
34481;SDS011;20720;48.886;9.388;2023-05-18T03:51:32;18.98;;;7.90;;
34481;SDS011;20720;48.886;9.388;2023-05-18T03:53:57;17.73;;;6.38;;
34481;SDS011;20720;48.886;9.388;2023-05-18T03:56:22;14.98;;;7.03;;
34481;SDS011;20720;48.886;9.388;2023-05-18T03:58:48;13.25;;;6.15;;
34481;SDS011;20720;48.886;9.388;2023-05-18T04:01:15;16.00;;;7.88;;
34481;SDS011;20720;48.886;9.388;2023-05-18T04:03:42;22.65;;;9.52;;
34481;SDS011;20720;48.886;9.388;2023-05-18T04:06:09;18.17;;;8.50;;
34481;SDS011;20720;48.886;9.388;2023-05-18T04:08:34;16.95;;;7.95;;
34481;SDS011;20720;48.886;9.388;2023-05-18T04:11:00;16.67;;;6.72;;
34481;SDS011;20720;48.886;9.388;2023-05-18T04:13:26;17.55;;;6.35;;
34481;SDS011;20720;48.886;9.388;2023-05-18T04:15:51;15.32;;;7.10;;
34481;SDS011;20720;48.886;9.388;2023-05-18T04:18:16;17.15;;;6.80;;
34481;SDS011;20720;48.886;9.388;2023-05-18T04:20:42;16.75;;;7.00;;
34481;SDS011;20720;48.886;9.388;2023-05-18T04:23:10;12.98;;;4.90;;
34481;SDS011;20720;48.886;9.388;2023-05-18T04:25:36;10.15;;;5.53;;
34481;SDS011;20720;48.886;9.388;2023-05-18T04:28:03;16.15;;;6.05;;
34481;SDS011;20720;48.886;9.388;2023-05-18T04:30:28;13.32;;;6.07;;
34481;SDS011;20720;48.886;9.388;2023-05-18T04:32:55;15.32;;;6.78;;
34481;SDS011;20720;48.886;9.388;2023-05-18T04:35:22;14.57;;;5.70;;
34481;SDS011;20720;48.886;9.388;2023-05-18T04:37:49;16.85;;;5.88;;
34481;SDS011;20720;48.886;9.388;2023-05-18T04:40:15;8.15;;;4.38;;
34481;SDS011;20720;48.886;9.388;2023-05-18T04:42:41;13.25;;;4.57;;
34481;SDS011;20720;48.886;9.388;2023-05-18T04:45:15;10.93;;;3.97;;
34481;SDS011;20720;48.886;9.388;2023-05-18T04:47:42;9.95;;;3.72;;
34481;SDS011;20720;48.886;9.388;2023-05-18T04:50:10;11.57;;;3.50;;
34481;SDS011;20720;48.886;9.388;2023-05-18T04:52:36;10.75;;;3.70;;
34481;SDS011;20720;48.886;9.388;2023-05-18T04:55:01;9.52;;;3.38;;
34481;SDS011;20720;48.886;9.388;2023-05-18T04:57:27;9.65;;;3.53;;
34481;SDS011;20720;48.886;9.388;2023-05-18T04:59:52;7.13;;;3.45;;
34481;SDS011;20720;48.886;9.388;2023-05-18T05:02:18;9.73;;;3.42;;
34481;SDS011;20720;48.886;9.388;2023-05-18T05:04:43;13.25;;;3.58;;
34481;SDS011;20720;48.886;9.388;2023-05-18T05:07:09;8.18;;;3.17;;
34481;SDS011;20720;48.886;9.388;2023-05-18T05:09:34;6.70;;;2.92;;
34481;SDS011;20720;48.886;9.388;2023-05-18T05:11:59;10.57;;;3.40;;
34481;SDS011;20720;48.886;9.388;2023-05-18T05:14:25;5.28;;;2.95;;
34481;SDS011;20720;48.886;9.388;2023-05-18T05:16:50;7.15;;;2.80;;
34481;SDS011;20720;48.886;9.388;2023-05-18T05:19:15;8.02;;;3.30;;
34481;SDS011;20720;48.886;9.388;2023-05-18T05:21:40;8.43;;;2.90;;
34481;SDS011;20720;48.886;9.388;2023-05-18T05:24:06;7.35;;;3.13;;
34481;SDS011;20720;48.886;9.388;2023-05-18T05:26:32;7.45;;;2.53;;
34481;SDS011;20720;48.886;9.388;2023-05-18T05:28:57;6.88;;;2.88;;
34481;SDS011;20720;48.886;9.388;2023-05-18T05:31:23;7.05;;;2.65;;
34481;SDS011;20720;48.886;9.388;2023-05-18T05:33:48;14.75;;;3.40;;
34481;SDS011;20720;48.886;9.388;2023-05-18T05:36:13;7.18;;;2.75;;
34481;SDS011;20720;48.886;9.388;2023-05-18T05:38:38;8.88;;;3.05;;
34481;SDS011;20720;48.886;9.388;2023-05-18T05:41:04;6.85;;;3.10;;
34481;SDS011;20720;48.886;9.388;2023-05-18T05:43:29;7.68;;;2.67;;
34481;SDS011;20720;48.886;9.388;2023-05-18T05:45:54;11.82;;;2.55;;
34481;SDS011;20720;48.886;9.388;2023-05-18T05:48:20;9.05;;;3.10;;
34481;SDS011;20720;48.886;9.388;2023-05-18T05:50:45;9.88;;;2.22;;
34481;SDS011;20720;48.886;9.388;2023-05-18T05:53:10;7.20;;;2.50;;
34481;SDS011;20720;48.886;9.388;2023-05-18T05:55:36;10.75;;;2.50;;
34481;SDS011;20720;48.886;9.388;2023-05-18T05:58:05;7.95;;;2.30;;
34481;SDS011;20720;48.886;9.388;2023-05-18T06:00:31;11.50;;;2.67;;
34481;SDS011;20720;48.886;9.388;2023-05-18T06:02:56;7.13;;;2.42;;
34481;SDS011;20720;48.886;9.388;2023-05-18T06:05:22;9.80;;;2.92;;
34481;SDS011;20720;48.886;9.388;2023-05-18T06:07:48;7.97;;;2.70;;
34481;SDS011;20720;48.886;9.388;2023-05-18T06:10:13;8.50;;;2.15;;
34481;SDS011;20720;48.886;9.388;2023-05-18T06:12:38;9.98;;;2.72;;
34481;SDS011;20720;48.886;9.388;2023-05-18T06:15:05;8.40;;;2.03;;
34481;SDS011;20720;48.886;9.388;2023-05-18T06:17:31;8.93;;;3.03;;
34481;SDS011;20720;48.886;9.388;2023-05-18T06:19:56;9.15;;;2.13;;
34481;SDS011;20720;48.886;9.388;2023-05-18T06:22:21;5.55;;;2.20;;
34481;SDS011;20720;48.886;9.388;2023-05-18T06:24:47;5.70;;;1.80;;
34481;SDS011;20720;48.886;9.388;2023-05-18T06:27:12;5.85;;;1.90;;
34481;SDS011;20720;48.886;9.388;2023-05-18T06:29:38;12.35;;;2.22;;
34481;SDS011;20720;48.886;9.388;2023-05-18T06:32:03;7.97;;;2.10;;
34481;SDS011;20720;48.886;9.388;2023-05-18T06:34:29;6.38;;;2.10;;
34481;SDS011;20720;48.886;9.388;2023-05-18T06:36:54;8.25;;;2.35;;
34481;SDS011;20720;48.886;9.388;2023-05-18T06:39:20;8.18;;;2.45;;
34481;SDS011;20720;48.886;9.388;2023-05-18T06:41:45;9.02;;;2.65;;
34481;SDS011;20720;48.886;9.388;2023-05-18T06:44:10;8.63;;;3.78;;
34481;SDS011;20720;48.886;9.388;2023-05-18T06:46:36;11.88;;;4.95;;
34481;SDS011;20720;48.886;9.388;2023-05-18T06:49:02;11.50;;;5.43;;
34481;SDS011;20720;48.886;9.388;2023-05-18T06:51:27;10.98;;;4.00;;
34481;SDS011;20720;48.886;9.388;2023-05-18T06:53:53;10.63;;;2.90;;
34481;SDS011;20720;48.886;9.388;2023-05-18T06:56:18;6.70;;;2.25;;
34481;SDS011;20720;48.886;9.388;2023-05-18T06:58:43;6.10;;;2.30;;
34481;SDS011;20720;48.886;9.388;2023-05-18T07:01:08;9.38;;;2.88;;
34481;SDS011;20720;48.886;9.388;2023-05-18T07:03:35;9.82;;;2.83;;
34481;SDS011;20720;48.886;9.388;2023-05-18T07:06:01;7.38;;;3.05;;
34481;SDS011;20720;48.886;9.388;2023-05-18T07:08:28;7.93;;;2.40;;
34481;SDS011;20720;48.886;9.388;2023-05-18T07:10:54;7.93;;;2.25;;
34481;SDS011;20720;48.886;9.388;2023-05-18T07:13:21;6.03;;;1.92;;
34481;SDS011;20720;48.886;9.388;2023-05-18T07:15:47;7.15;;;2.25;;
34481;SDS011;20720;48.886;9.388;2023-05-18T07:18:12;8.70;;;1.90;;
34481;SDS011;20720;48.886;9.388;2023-05-18T07:20:37;5.88;;;1.88;;
34481;SDS011;20720;48.886;9.388;2023-05-18T07:23:03;4.50;;;1.90;;
34481;SDS011;20720;48.886;9.388;2023-05-18T07:25:28;5.55;;;2.03;;
34481;SDS011;20720;48.886;9.388;2023-05-18T07:27:54;7.95;;;2.70;;
34481;SDS011;20720;48.886;9.388;2023-05-18T07:30:20;7.32;;;1.73;;
34481;SDS011;20720;48.886;9.388;2023-05-18T07:32:45;8.88;;;1.83;;
34481;SDS011;20720;48.886;9.388;2023-05-18T07:35:11;6.45;;;1.88;;
34481;SDS011;20720;48.886;9.388;2023-05-18T07:37:36;7.28;;;1.85;;
34481;SDS011;20720;48.886;9.388;2023-05-18T07:40:02;6.80;;;1.88;;
34481;SDS011;20720;48.886;9.388;2023-05-18T07:42:28;8.20;;;1.90;;
34481;SDS011;20720;48.886;9.388;2023-05-18T07:44:54;8.93;;;2.10;;
34481;SDS011;20720;48.886;9.388;2023-05-18T07:47:20;9.15;;;2.08;;
34481;SDS011;20720;48.886;9.388;2023-05-18T07:49:45;6.18;;;1.60;;
34481;SDS011;20720;48.886;9.388;2023-05-18T07:52:11;6.00;;;1.77;;
34481;SDS011;20720;48.886;9.388;2023-05-18T07:54:36;8.25;;;2.25;;
34481;SDS011;20720;48.886;9.388;2023-05-18T07:57:02;5.70;;;1.90;;
34481;SDS011;20720;48.886;9.388;2023-05-18T07:59:28;7.10;;;2.40;;
34481;SDS011;20720;48.886;9.388;2023-05-18T08:01:53;11.65;;;2.33;;
34481;SDS011;20720;48.886;9.388;2023-05-18T08:04:18;6.50;;;1.90;;
34481;SDS011;20720;48.886;9.388;2023-05-18T08:06:44;6.72;;;2.20;;
34481;SDS011;20720;48.886;9.388;2023-05-18T08:09:09;7.35;;;2.08;;
34481;SDS011;20720;48.886;9.388;2023-05-18T08:11:34;7.53;;;1.80;;
34481;SDS011;20720;48.886;9.388;2023-05-18T08:14:00;5.45;;;1.85;;
34481;SDS011;20720;48.886;9.388;2023-05-18T08:16:25;6.13;;;2.10;;
34481;SDS011;20720;48.886;9.388;2023-05-18T08:18:50;8.07;;;2.00;;
34481;SDS011;20720;48.886;9.388;2023-05-18T08:21:16;5.13;;;1.58;;
34481;SDS011;20720;48.886;9.388;2023-05-18T08:23:41;7.68;;;2.10;;
34481;SDS011;20720;48.886;9.388;2023-05-18T08:26:06;6.90;;;2.20;;
34481;SDS011;20720;48.886;9.388;2023-05-18T08:28:32;6.03;;;1.92;;
34481;SDS011;20720;48.886;9.388;2023-05-18T08:30:58;5.63;;;2.08;;
34481;SDS011;20720;48.886;9.388;2023-05-18T08:33:23;9.48;;;2.35;;
34481;SDS011;20720;48.886;9.388;2023-05-18T08:35:48;8.02;;;1.77;;
34481;SDS011;20720;48.886;9.388;2023-05-18T08:38:14;10.02;;;2.20;;
34481;SDS011;20720;48.886;9.388;2023-05-18T08:40:52;6.63;;;2.00;;
34481;SDS011;20720;48.886;9.388;2023-05-18T08:43:26;5.78;;;1.73;;
34481;SDS011;20720;48.886;9.388;2023-05-18T08:48:34;8.95;;;1.88;;
34481;SDS011;20720;48.886;9.388;2023-05-18T08:51:01;10.57;;;2.13;;
34481;SDS011;20720;48.886;9.388;2023-05-18T08:53:31;6.20;;;1.90;;
34481;SDS011;20720;48.886;9.388;2023-05-18T08:55:57;7.95;;;2.65;;
34481;SDS011;20720;48.886;9.388;2023-05-18T08:58:33;10.02;;;2.60;;
34481;SDS011;20720;48.886;9.388;2023-05-18T09:01:01;5.88;;;1.92;;
34481;SDS011;20720;48.886;9.388;2023-05-18T09:03:28;6.38;;;1.98;;
34481;SDS011;20720;48.886;9.388;2023-05-18T09:05:54;7.80;;;2.28;;
34481;SDS011;20720;48.886;9.388;2023-05-18T09:08:21;9.00;;;2.53;;
34481;SDS011;20720;48.886;9.388;2023-05-18T09:10:47;8.88;;;2.80;;
34481;SDS011;20720;48.886;9.388;2023-05-18T09:13:14;9.05;;;2.80;;
34481;SDS011;20720;48.886;9.388;2023-05-18T09:15:44;8.35;;;2.38;;
34481;SDS011;20720;48.886;9.388;2023-05-18T09:18:10;7.72;;;2.60;;
34481;SDS011;20720;48.886;9.388;2023-05-18T09:20:35;7.50;;;2.40;;
34481;SDS011;20720;48.886;9.388;2023-05-18T09:23:00;10.05;;;2.80;;
34481;SDS011;20720;48.886;9.388;2023-05-18T09:25:26;8.70;;;2.85;;
34481;SDS011;20720;48.886;9.388;2023-05-18T09:27:55;10.13;;;2.45;;
34481;SDS011;20720;48.886;9.388;2023-05-18T09:30:21;10.67;;;2.57;;
34481;SDS011;20720;48.886;9.388;2023-05-18T09:32:47;6.85;;;1.88;;
34481;SDS011;20720;48.886;9.388;2023-05-18T09:35:12;9.25;;;2.17;;
34481;SDS011;20720;48.886;9.388;2023-05-18T09:37:40;6.18;;;2.25;;
34481;SDS011;20720;48.886;9.388;2023-05-18T09:40:06;8.48;;;2.50;;
34481;SDS011;20720;48.886;9.388;2023-05-18T09:42:39;8.95;;;2.90;;
34481;SDS011;20720;48.886;9.388;2023-05-18T09:45:18;7.75;;;2.17;;
34481;SDS011;20720;48.886;9.388;2023-05-18T09:47:44;7.72;;;2.13;;
34481;SDS011;20720;48.886;9.388;2023-05-18T09:50:10;4.38;;;1.85;;
34481;SDS011;20720;48.886;9.388;2023-05-18T09:52:42;6.25;;;2.28;;
34481;SDS011;20720;48.886;9.388;2023-05-18T09:55:10;7.20;;;1.90;;
34481;SDS011;20720;48.886;9.388;2023-05-18T09:57:42;5.68;;;2.00;;
34481;SDS011;20720;48.886;9.388;2023-05-18T10:02:38;6.93;;;1.73;;
34481;SDS011;20720;48.886;9.388;2023-05-18T10:05:05;5.00;;;1.90;;
34481;SDS011;20720;48.886;9.388;2023-05-18T10:07:42;6.53;;;1.95;;
34481;SDS011;20720;48.886;9.388;2023-05-18T10:10:07;8.07;;;2.47;;
34481;SDS011;20720;48.886;9.388;2023-05-18T10:12:33;7.95;;;2.10;;
34481;SDS011;20720;48.886;9.388;2023-05-18T10:15:03;8.85;;;2.10;;
34481;SDS011;20720;48.886;9.388;2023-05-18T10:17:29;6.55;;;1.98;;
34481;SDS011;20720;48.886;9.388;2023-05-18T10:19:57;8.38;;;2.28;;
34481;SDS011;20720;48.886;9.388;2023-05-18T10:22:22;7.47;;;2.05;;
34481;SDS011;20720;48.886;9.388;2023-05-18T10:24:51;8.85;;;2.53;;
34481;SDS011;20720;48.886;9.388;2023-05-18T10:27:17;9.00;;;2.03;;
34481;SDS011;20720;48.886;9.388;2023-05-18T10:29:50;7.07;;;2.10;;
34481;SDS011;20720;48.886;9.388;2023-05-18T10:32:18;7.50;;;3.85;;
34481;SDS011;20720;48.886;9.388;2023-05-18T10:34:44;6.85;;;2.33;;
34481;SDS011;20720;48.886;9.388;2023-05-18T10:37:10;9.10;;;2.35;;
34481;SDS011;20720;48.886;9.388;2023-05-18T10:39:38;6.03;;;2.22;;
34481;SDS011;20720;48.886;9.388;2023-05-18T10:42:09;9.07;;;2.65;;
34481;SDS011;20720;48.886;9.388;2023-05-18T10:44:35;8.38;;;3.50;;
34481;SDS011;20720;48.886;9.388;2023-05-18T10:47:07;6.75;;;2.60;;
34481;SDS011;20720;48.886;9.388;2023-05-18T10:49:32;6.78;;;2.13;;
34481;SDS011;20720;48.886;9.388;2023-05-18T10:51:59;9.05;;;2.20;;
34481;SDS011;20720;48.886;9.388;2023-05-18T10:54:26;7.15;;;2.15;;
34481;SDS011;20720;48.886;9.388;2023-05-18T10:56:52;6.13;;;1.90;;
34481;SDS011;20720;48.886;9.388;2023-05-18T10:59:17;10.27;;;2.45;;
34481;SDS011;20720;48.886;9.388;2023-05-18T11:01:44;9.00;;;2.00;;
34481;SDS011;20720;48.886;9.388;2023-05-18T11:04:12;15.85;;;8.82;;
34481;SDS011;20720;48.886;9.388;2023-05-18T11:06:37;24.63;;;15.63;;
34481;SDS011;20720;48.886;9.388;2023-05-18T11:09:03;7.93;;;3.40;;
34481;SDS011;20720;48.886;9.388;2023-05-18T11:11:29;7.95;;;2.67;;
34481;SDS011;20720;48.886;9.388;2023-05-18T11:14:14;5.63;;;2.40;;
34481;SDS011;20720;48.886;9.388;2023-05-18T11:16:48;8.27;;;2.20;;
34481;SDS011;20720;48.886;9.388;2023-05-18T11:19:13;8.10;;;2.20;;
34481;SDS011;20720;48.886;9.388;2023-05-18T11:24:18;5.68;;;2.30;;
34481;SDS011;20720;48.886;9.388;2023-05-18T11:26:46;6.07;;;2.47;;
34481;SDS011;20720;48.886;9.388;2023-05-18T11:29:43;6.05;;;2.13;;
34481;SDS011;20720;48.886;9.388;2023-05-18T11:34:56;6.85;;;1.90;;
34481;SDS011;20720;48.886;9.388;2023-05-18T11:38:04;6.75;;;2.05;;
34481;SDS011;20720;48.886;9.388;2023-05-18T11:40:10;5.88;;;1.65;;
34481;SDS011;20720;48.886;9.388;2023-05-18T11:42:37;7.47;;;2.05;;
34481;SDS011;20720;48.886;9.388;2023-05-18T11:47:32;5.45;;;2.00;;
34481;SDS011;20720;48.886;9.388;2023-05-18T11:49:58;4.40;;;1.30;;
34481;SDS011;20720;48.886;9.388;2023-05-18T11:52:24;5.93;;;2.03;;
34481;SDS011;20720;48.886;9.388;2023-05-18T11:54:50;7.55;;;1.85;;
34481;SDS011;20720;48.886;9.388;2023-05-18T11:57:37;6.28;;;2.50;;
34481;SDS011;20720;48.886;9.388;2023-05-18T12:00:08;6.97;;;1.70;;
34481;SDS011;20720;48.886;9.388;2023-05-18T12:02:35;7.53;;;2.03;;
34481;SDS011;20720;48.886;9.388;2023-05-18T12:05:06;8.98;;;2.20;;
34481;SDS011;20720;48.886;9.388;2023-05-18T12:07:32;7.07;;;1.92;;
34481;SDS011;20720;48.886;9.388;2023-05-18T12:10:00;8.77;;;2.45;;
34481;SDS011;20720;48.886;9.388;2023-05-18T12:12:27;5.60;;;1.50;;
34481;SDS011;20720;48.886;9.388;2023-05-18T12:14:56;6.85;;;1.70;;
34481;SDS011;20720;48.886;9.388;2023-05-18T12:17:22;7.95;;;1.88;;
34481;SDS011;20720;48.886;9.388;2023-05-18T12:19:53;7.65;;;2.13;;
34481;SDS011;20720;48.886;9.388;2023-05-18T12:22:18;5.88;;;1.63;;
34481;SDS011;20720;48.886;9.388;2023-05-18T12:24:43;5.15;;;1.98;;
34481;SDS011;20720;48.886;9.388;2023-05-18T12:27:09;7.30;;;1.80;;
34481;SDS011;20720;48.886;9.388;2023-05-18T12:29:39;5.57;;;1.80;;
34481;SDS011;20720;48.886;9.388;2023-05-18T12:32:09;6.22;;;1.70;;
34481;SDS011;20720;48.886;9.388;2023-05-18T12:34:36;5.45;;;1.85;;
34481;SDS011;20720;48.886;9.388;2023-05-18T12:37:03;5.63;;;1.73;;
34481;SDS011;20720;48.886;9.388;2023-05-18T12:39:30;6.38;;;1.92;;
34481;SDS011;20720;48.886;9.388;2023-05-18T12:42:11;7.88;;;2.10;;
34481;SDS011;20720;48.886;9.388;2023-05-18T12:44:38;7.60;;;2.13;;
34481;SDS011;20720;48.886;9.388;2023-05-18T12:47:05;6.43;;;2.20;;
34481;SDS011;20720;48.886;9.388;2023-05-18T12:49:37;7.65;;;2.10;;
34481;SDS011;20720;48.886;9.388;2023-05-18T12:52:07;6.78;;;2.05;;
34481;SDS011;20720;48.886;9.388;2023-05-18T12:54:48;7.18;;;2.38;;
34481;SDS011;20720;48.886;9.388;2023-05-18T12:57:18;5.10;;;1.83;;
34481;SDS011;20720;48.886;9.388;2023-05-18T12:59:47;4.10;;;1.65;;
34481;SDS011;20720;48.886;9.388;2023-05-18T13:05:10;4.53;;;1.50;;
34481;SDS011;20720;48.886;9.388;2023-05-18T13:07:36;7.72;;;1.60;;
34481;SDS011;20720;48.886;9.388;2023-05-18T13:10:07;5.90;;;1.70;;
34481;SDS011;20720;48.886;9.388;2023-05-18T13:15:12;5.38;;;1.60;;
34481;SDS011;20720;48.886;9.388;2023-05-18T13:17:58;5.65;;;1.90;;
34481;SDS011;20720;48.886;9.388;2023-05-18T13:25:34;6.00;;;1.80;;
34481;SDS011;20720;48.886;9.388;2023-05-18T13:28:00;8.20;;;1.85;;
34481;SDS011;20720;48.886;9.388;2023-05-18T13:30:29;9.32;;;2.17;;
34481;SDS011;20720;48.886;9.388;2023-05-18T13:32:55;5.15;;;1.63;;
34481;SDS011;20720;48.886;9.388;2023-05-18T13:35:21;4.38;;;1.52;;
34481;SDS011;20720;48.886;9.388;2023-05-18T13:37:47;6.30;;;1.67;;
34481;SDS011;20720;48.886;9.388;2023-05-18T13:40:14;8.05;;;1.92;;
34481;SDS011;20720;48.886;9.388;2023-05-18T13:42:44;4.75;;;1.77;;
34481;SDS011;20720;48.886;9.388;2023-05-18T13:45:10;5.97;;;1.67;;
34481;SDS011;20720;48.886;9.388;2023-05-18T13:47:37;6.85;;;2.10;;
34481;SDS011;20720;48.886;9.388;2023-05-18T13:50:03;5.53;;;1.38;;
34481;SDS011;20720;48.886;9.388;2023-05-18T13:52:32;6.60;;;1.67;;
34481;SDS011;20720;48.886;9.388;2023-05-18T13:54:58;7.50;;;1.95;;
34481;SDS011;20720;48.886;9.388;2023-05-18T13:57:23;4.10;;;1.65;;
34481;SDS011;20720;48.886;9.388;2023-05-18T13:59:50;5.60;;;1.80;;
34481;SDS011;20720;48.886;9.388;2023-05-18T14:02:16;5.35;;;1.92;;
34481;SDS011;20720;48.886;9.388;2023-05-18T14:04:42;8.93;;;2.05;;
34481;SDS011;20720;48.886;9.388;2023-05-18T14:07:07;5.05;;;1.60;;
34481;SDS011;20720;48.886;9.388;2023-05-18T14:09:33;6.22;;;1.40;;
34481;SDS011;20720;48.886;9.388;2023-05-18T14:11:58;5.40;;;1.55;;
34481;SDS011;20720;48.886;9.388;2023-05-18T14:14:24;7.07;;;1.77;;
34481;SDS011;20720;48.886;9.388;2023-05-18T14:16:49;7.38;;;1.95;;
34481;SDS011;20720;48.886;9.388;2023-05-18T14:19:15;6.60;;;1.63;;
34481;SDS011;20720;48.886;9.388;2023-05-18T14:21:40;6.45;;;1.60;;
34481;SDS011;20720;48.886;9.388;2023-05-18T14:24:06;6.85;;;1.77;;
34481;SDS011;20720;48.886;9.388;2023-05-18T14:26:33;7.65;;;1.67;;
34481;SDS011;20720;48.886;9.388;2023-05-18T14:29:00;5.32;;;1.60;;
34481;SDS011;20720;48.886;9.388;2023-05-18T14:31:25;5.35;;;1.63;;
34481;SDS011;20720;48.886;9.388;2023-05-18T14:33:51;6.53;;;1.50;;
34481;SDS011;20720;48.886;9.388;2023-05-18T14:36:16;7.57;;;1.90;;
34481;SDS011;20720;48.886;9.388;2023-05-18T14:38:41;5.05;;;1.92;;
34481;SDS011;20720;48.886;9.388;2023-05-18T14:41:07;4.00;;;1.40;;
34481;SDS011;20720;48.886;9.388;2023-05-18T14:43:32;4.78;;;1.65;;
34481;SDS011;20720;48.886;9.388;2023-05-18T14:45:58;5.53;;;1.83;;
34481;SDS011;20720;48.886;9.388;2023-05-18T14:48:23;3.70;;;1.88;;
34481;SDS011;20720;48.886;9.388;2023-05-18T14:50:48;4.77;;;1.80;;
34481;SDS011;20720;48.886;9.388;2023-05-18T14:53:13;5.60;;;2.60;;
34481;SDS011;20720;48.886;9.388;2023-05-18T14:55:39;5.10;;;1.40;;
34481;SDS011;20720;48.886;9.388;2023-05-18T14:58:04;5.78;;;1.60;;
34481;SDS011;20720;48.886;9.388;2023-05-18T15:00:31;4.88;;;1.60;;
34481;SDS011;20720;48.886;9.388;2023-05-18T15:02:57;4.25;;;1.40;;
34481;SDS011;20720;48.886;9.388;2023-05-18T15:05:22;4.55;;;1.55;;
34481;SDS011;20720;48.886;9.388;2023-05-18T15:07:47;5.75;;;2.65;;
34481;SDS011;20720;48.886;9.388;2023-05-18T15:10:13;3.55;;;1.38;;
34481;SDS011;20720;48.886;9.388;2023-05-18T15:12:38;6.30;;;2.35;;
34481;SDS011;20720;48.886;9.388;2023-05-18T15:15:03;7.33;;;2.03;;